createdAt,value
2022-09-25T00:00:18.639Z,14.72
2022-09-25T00:05:18.681Z,14.74
2022-09-25T00:10:18.742Z,14.77
2022-09-25T00:15:18.727Z,14.80
2022-09-25T00:20:19.641Z,14.83
2022-09-25T00:25:19.988Z,14.87
2022-09-25T00:30:19.748Z,14.92
2022-09-25T00:35:19.767Z,14.96
2022-09-25T00:40:19.730Z,14.98
2022-09-25T00:45:20.282Z,14.99
2022-09-25T00:50:20.730Z,14.99
2022-09-25T00:55:22.608Z,15.01
2022-09-25T01:00:22.772Z,15.03
2022-09-25T01:05:22.712Z,15.06
2022-09-25T01:10:22.738Z,15.08
2022-09-25T01:15:22.783Z,15.09
2022-09-25T01:20:22.756Z,15.09
2022-09-25T01:25:22.738Z,15.09
2022-09-25T01:30:22.928Z,15.09
2022-09-25T01:35:22.729Z,15.07
2022-09-25T01:40:22.806Z,15.05
2022-09-25T01:45:22.912Z,15.02
2022-09-25T01:50:22.760Z,14.99
2022-09-25T01:55:22.716Z,14.96
2022-09-25T02:00:22.790Z,14.93
2022-09-25T02:05:26.873Z,14.89
2022-09-25T02:10:26.757Z,14.86
2022-09-25T02:15:26.757Z,14.82
2022-09-25T02:20:32.886Z,14.78
2022-09-25T02:25:32.744Z,14.74
2022-09-25T02:30:32.930Z,14.72
2022-09-25T02:35:32.784Z,14.72
2022-09-25T02:40:32.793Z,14.70
2022-09-25T02:45:32.784Z,14.69
2022-09-25T02:50:32.828Z,14.67
2022-09-25T02:55:33.132Z,14.65
2022-09-25T03:00:33.041Z,14.61
2022-09-25T03:05:32.764Z,14.57
2022-09-25T03:10:32.829Z,14.54
2022-09-25T03:15:32.847Z,14.49
2022-09-25T03:20:32.833Z,14.43
2022-09-25T03:25:33.239Z,14.38
2022-09-25T03:30:32.968Z,14.34
2022-09-25T03:35:32.800Z,14.32
2022-09-25T03:40:32.902Z,14.30
2022-09-25T03:45:32.866Z,14.30
2022-09-25T03:50:32.861Z,14.30
2022-09-25T03:55:33.250Z,14.28
2022-09-25T04:00:32.916Z,14.27
2022-09-25T04:05:32.800Z,14.24
2022-09-25T04:10:32.837Z,14.22
2022-09-25T04:15:33.130Z,14.21
2022-09-25T04:20:32.906Z,14.19
2022-09-25T04:25:32.867Z,14.16
2022-09-25T04:30:32.886Z,14.14
2022-09-25T04:35:32.807Z,14.13
2022-09-25T04:40:32.923Z,14.10
2022-09-25T04:45:32.888Z,14.06
2022-09-25T04:50:34.707Z,14.01
2022-09-25T04:55:34.873Z,13.95
2022-09-25T05:00:35.353Z,13.89
2022-09-25T05:05:34.841Z,13.83
2022-09-25T05:10:34.880Z,13.76
2022-09-25T05:15:35.385Z,13.68
2022-09-25T05:20:34.880Z,13.55
2022-09-25T05:25:34.969Z,13.37
2022-09-25T05:30:34.878Z,13.16
2022-09-25T05:35:34.874Z,12.93
2022-09-25T05:40:34.979Z,12.74
2022-09-25T05:45:35.495Z,12.59
2022-09-25T05:50:35.971Z,12.46
2022-09-25T05:55:36.007Z,12.35
2022-09-25T06:00:35.923Z,12.24
2022-09-25T06:05:36.357Z,12.13
2022-09-25T06:10:35.977Z,12.04
2022-09-25T06:15:36.366Z,11.98
2022-09-25T06:20:35.929Z,11.93
2022-09-25T06:25:36.439Z,11.91
2022-09-25T06:30:36.026Z,11.91
2022-09-25T06:35:35.954Z,11.92
2022-09-25T06:40:37.627Z,11.97
2022-09-25T06:45:38.384Z,12.07
2022-09-25T06:50:37.981Z,12.21
2022-09-25T06:55:37.984Z,12.37
2022-09-25T07:00:37.958Z,12.58
2022-09-25T07:05:38.000Z,12.80
2022-09-25T07:10:39.210Z,12.99
2022-09-25T07:15:40.568Z,13.19
2022-09-25T07:20:41.013Z,13.47
2022-09-25T07:25:41.001Z,13.84
2022-09-25T07:30:41.079Z,14.27
2022-09-25T07:35:41.162Z,14.67
2022-09-25T07:40:41.472Z,14.97
2022-09-25T07:45:41.413Z,15.26
2022-09-25T07:50:41.674Z,15.68
2022-09-25T07:55:42.071Z,16.26
2022-09-25T08:00:43.052Z,16.83
2022-09-25T08:05:43.027Z,18.00
2022-09-25T08:10:43.338Z,20.24
2022-09-25T08:15:43.231Z,21.91
2022-09-25T08:20:43.033Z,21.97
2022-09-25T08:25:43.113Z,21.21
2022-09-25T08:30:43.614Z,20.23
2022-09-25T08:35:44.059Z,19.27
2022-09-25T08:40:46.467Z,18.79
2022-09-25T08:46:04.693Z,19.13
2022-09-25T08:51:05.737Z,20.59
2022-09-25T08:56:17.080Z,22.52
2022-09-25T09:01:17.143Z,24.29
2022-09-25T09:06:17.046Z,26.35
2022-09-25T09:11:17.075Z,27.76
2022-09-25T09:16:17.202Z,28.67
2022-09-25T09:21:17.070Z,30.57
2022-09-25T09:26:17.192Z,32.99
2022-09-25T09:31:17.192Z,32.87
2022-09-25T09:36:17.340Z,31.15
2022-09-25T09:41:17.101Z,29.60
2022-09-25T09:46:17.183Z,28.11
2022-09-25T09:51:17.082Z,27.15
2022-09-25T09:56:17.175Z,26.51
2022-09-25T10:01:37.066Z,25.77
2022-09-25T10:06:22.499Z,25.06
2022-09-25T10:11:21.194Z,24.34
2022-09-25T10:16:21.169Z,23.58
2022-09-25T10:21:21.165Z,23.37
2022-09-25T10:26:21.177Z,23.22
2022-09-25T10:31:21.236Z,23.02
2022-09-25T10:36:21.095Z,22.71
2022-09-25T10:41:21.109Z,22.13
2022-09-25T10:46:23.204Z,21.65
2022-09-25T10:51:23.120Z,21.73
2022-09-25T10:56:25.078Z,22.20
2022-09-25T11:01:25.303Z,22.61
2022-09-25T11:06:25.350Z,22.78
2022-09-25T11:11:28.288Z,22.46
2022-09-25T11:16:28.930Z,21.65
2022-09-25T11:21:29.178Z,20.83
2022-09-25T11:26:29.251Z,20.27
2022-09-25T11:31:29.138Z,20.02
2022-09-25T11:36:29.526Z,20.03
2022-09-25T11:41:29.209Z,20.03
2022-09-25T11:46:29.265Z,19.92
2022-09-25T11:51:29.692Z,19.83
2022-09-25T11:56:32.822Z,19.82
2022-09-25T12:01:31.280Z,19.86
2022-09-25T12:06:31.865Z,19.88
2022-09-25T12:11:37.306Z,20.08
2022-09-25T12:16:37.303Z,20.43
2022-09-25T12:21:38.453Z,20.78
2022-09-25T12:26:38.466Z,20.99
2022-09-25T12:31:39.040Z,20.85
2022-09-25T12:36:39.227Z,20.35
2022-09-25T12:41:40.292Z,20.02
2022-09-25T12:46:42.507Z,19.83
2022-09-25T12:51:42.229Z,19.50
2022-09-25T12:56:43.230Z,19.37
2022-09-25T13:01:45.105Z,19.45
2022-09-25T13:06:45.278Z,19.68
2022-09-25T13:11:45.606Z,19.92
2022-09-25T13:16:47.292Z,20.01
2022-09-25T13:21:47.231Z,19.87
2022-09-25T13:26:47.377Z,19.56
2022-09-25T13:31:47.209Z,19.18
2022-09-25T13:36:47.365Z,18.81
2022-09-25T13:41:48.176Z,18.49
2022-09-25T13:46:48.314Z,18.20
2022-09-25T13:51:48.243Z,18.03
2022-09-25T13:56:48.589Z,18.13
2022-09-25T14:01:48.446Z,18.37
2022-09-25T14:06:48.227Z,18.40
2022-09-25T14:11:48.235Z,18.24
2022-09-25T14:16:48.372Z,18.03
2022-09-25T14:21:48.347Z,17.81
2022-09-25T14:26:48.316Z,17.54
2022-09-25T14:31:48.358Z,17.27
2022-09-25T14:36:48.952Z,17.07
2022-09-25T14:41:49.321Z,16.94
2022-09-25T14:46:49.379Z,16.90
2022-09-25T14:51:49.995Z,16.93
2022-09-25T14:56:50.430Z,16.97
2022-09-25T15:01:50.478Z,17.03
2022-09-25T15:06:50.304Z,17.05
2022-09-25T15:11:50.230Z,17.02
2022-09-25T15:17:08.539Z,16.93
2022-09-25T15:22:08.242Z,16.80
2022-09-25T15:27:08.535Z,16.74
2022-09-25T15:32:08.664Z,16.84
2022-09-25T15:37:08.362Z,16.98
2022-09-25T15:42:08.281Z,17.07
2022-09-25T15:47:08.519Z,17.07
2022-09-25T15:52:08.382Z,16.94
2022-09-25T15:57:10.343Z,16.69
2022-09-25T16:02:28.714Z,16.40
2022-09-25T16:07:28.426Z,16.19
2022-09-25T16:12:28.346Z,16.11
2022-09-25T16:17:28.449Z,16.12
2022-09-25T16:22:28.639Z,16.19
2022-09-25T16:27:28.688Z,16.25
2022-09-25T16:32:28.402Z,16.27
2022-09-25T16:37:28.557Z,16.27
2022-09-25T16:42:28.446Z,16.26
2022-09-25T16:47:28.432Z,16.25
2022-09-25T16:52:28.577Z,16.22
2022-09-25T16:57:28.938Z,16.17
2022-09-25T17:02:33.246Z,16.08
2022-09-25T17:07:33.473Z,15.94
2022-09-25T17:12:33.561Z,15.74
2022-09-25T17:17:33.532Z,15.53
2022-09-25T17:22:33.380Z,15.31
2022-09-25T17:27:33.481Z,15.09
2022-09-25T17:32:33.785Z,14.90
2022-09-25T17:37:33.509Z,14.74
2022-09-25T17:42:33.375Z,14.61
2022-09-25T17:47:33.454Z,14.52
2022-09-25T17:52:33.497Z,14.48
2022-09-25T17:57:33.484Z,14.46
2022-09-25T18:02:33.587Z,14.46
2022-09-25T18:07:34.007Z,14.46
2022-09-25T18:12:34.454Z,14.43
2022-09-25T18:17:34.618Z,14.34
2022-09-25T18:22:35.452Z,14.18
2022-09-25T18:27:35.564Z,13.98
2022-09-25T18:32:35.517Z,13.72
2022-09-25T18:37:35.443Z,13.46
2022-09-25T18:42:35.465Z,13.24
2022-09-25T18:47:35.534Z,13.07
2022-09-25T18:52:35.455Z,12.93
2022-09-25T18:57:40.340Z,12.81
2022-09-25T19:02:42.063Z,12.72
2022-09-25T19:07:42.584Z,12.65
2022-09-25T19:12:42.464Z,12.61
2022-09-25T19:17:42.485Z,12.62
2022-09-25T19:22:42.526Z,12.65
2022-09-25T19:27:42.636Z,12.69
2022-09-25T19:32:43.239Z,12.71
2022-09-25T19:37:43.666Z,12.68
2022-09-25T19:42:43.523Z,12.58
2022-09-25T19:47:43.546Z,12.45
2022-09-25T19:52:47.561Z,12.34
2022-09-25T19:57:45.784Z,12.25
2022-09-25T20:02:46.005Z,12.18
2022-09-25T20:07:45.553Z,12.10
2022-09-25T20:12:45.587Z,12.03
2022-09-25T20:17:46.247Z,11.96
2022-09-25T20:22:47.006Z,11.90
2022-09-25T20:27:46.527Z,11.84
2022-09-25T20:32:46.639Z,11.77
2022-09-25T20:37:46.550Z,11.69
2022-09-25T20:42:46.514Z,11.61
2022-09-25T20:47:46.649Z,11.49
2022-09-25T20:52:46.916Z,11.36
2022-09-25T20:57:46.655Z,11.23
2022-09-25T21:02:46.605Z,11.12
2022-09-25T21:07:46.559Z,11.04
2022-09-25T21:12:46.514Z,10.94
2022-09-25T21:17:46.639Z,10.84
2022-09-25T21:22:47.164Z,10.74
2022-09-25T21:27:47.694Z,10.65
2022-09-25T21:32:47.669Z,10.60
2022-09-25T21:37:47.646Z,10.61
2022-09-25T21:42:47.553Z,10.66
2022-09-25T21:47:47.692Z,10.75
2022-09-25T21:52:47.571Z,10.88
2022-09-25T21:57:48.220Z,11.02
2022-09-25T22:02:49.752Z,11.15
2022-09-25T22:07:49.599Z,11.29
2022-09-25T22:12:49.574Z,11.42
2022-09-25T22:17:49.628Z,11.55
2022-09-25T22:22:49.779Z,11.67
2022-09-25T22:27:49.616Z,11.77
2022-09-25T22:32:49.620Z,11.83
2022-09-25T22:37:49.557Z,11.80
2022-09-25T22:42:49.777Z,11.73
2022-09-25T22:47:49.606Z,11.64
2022-09-25T22:52:49.779Z,11.59
2022-09-25T22:57:49.784Z,11.58
2022-09-25T23:02:49.628Z,11.54
2022-09-25T23:07:49.666Z,11.49
2022-09-25T23:12:49.591Z,11.46
2022-09-25T23:17:49.612Z,11.43
2022-09-25T23:22:49.666Z,11.37
2022-09-25T23:27:49.783Z,11.33
2022-09-25T23:32:49.648Z,11.32
2022-09-25T23:37:49.609Z,11.36
2022-09-25T23:42:49.808Z,11.39
2022-09-25T23:47:49.641Z,11.40
2022-09-25T23:52:49.701Z,11.40
2022-09-25T23:57:49.750Z,11.42
